Terminal Aerodrome Forecast
Issued by NWS Cleveland, OH

Home | Current Version | Previous Version | Graphics & Text | Print | Product List | Glossary On
Versions: 1 2 3 4 5 6 7 8 9 10 11 12 13 14 15 16 17 18 19 20 21 22 23 24 25 26 27 28 29 30 31 32 33 34 35 36 37
000
FTUS41 KCLE 030800 AAA
TAFCLE
TAF AMD
KCLE 030854Z 0309/0412 19005KT P6SM FEW100 SCT250
     FM031300 22008KT P6SM FEW100 SCT250
     FM031600 28008KT P6SM SCT060 BKN250
     FM032300 22010KT P6SM FEW060 BKN250
     FM040300 18008KT P6SM FEW100 SCT250=

USA.gov is the U.S. government's official web portal to all federal, state and local government web resources and services.